Airfield :
LOGIN :

Register | Disclaimer

   EN    FR    IT 

 










Legend :    VFR   Marginal VFR   IFR   Intensive IFR   Very Intensive IFR
Visi :
Ceiling :
>= 8 km
>= 3000ft
5 to 8 km
1000 to 3000 ft
1500m to 5 km
500 to 1000 ft
800 to 1500m
200 to 500 ft
< 800m
< 200 ft
Symbols :   Thunderstorms  Fog  Heavy snow  Heavy precipitations  Wind > 20 kt
SIGMETs :     Misc.  Thunderstorms  Icing  Turbulence  Mountain Waves  Volcanic Ashes







- Airport Elevation : 1682 ft
- IATA code : VIT


LEVT - Vitoria Gasteiz

CURRENT METAR :
  • 280030Z 04007KT 010V070 9999 FEW040 21/12 Q1015

EXPIRED METARs :
  • 280000Z 05008KT 020V080 9999 FEW040 22/11 Q1016
  • 272330Z 04003KT 9999 FEW040 23/10 Q1016
  • 272300Z 11001KT 9999 FEW040 24/10 Q1016
  • 272230Z 15003KT 9999 FEW040 25/11 Q1015

TAF TAF LEVT
Valid from the 28 at 00:00 until the 29 at 00:00 UTC


272300Z 2800/2824 15009KT 9999 SCT040 TX33/2816Z TN18/2805Z
PROB40
TEMPO 2800/2815 14015G25KT
PROB40
TEMPO 2821/2824 SHRA SCT030CB
No reported NOTAMs for that airfield.
1 SIGMET reported for the Madrid FIR (LECM) :
 
Embedded thunderstorms
LECM SIGMET 1 VALID 280100/280400 LEVA
LECM MADRID FIR/UIR EMBD TS FCST N OF LINE N4230 W007 - N4210 W00410 TOP FL380 MOV N 10KT WKN=



MET'MAP, your aeronautical weather chart ! - Copyright ORBIFLY December 2007 - Disclaimer

ORBIFLY MET'MAP TEAM :

Programming & Development : Alexandra Zaïnal
Concept & Development : Baudouin d'Aumeries
Co-Development & Prog : Marc-Olivier Méhu
Technical & hardware support : Manuel Goepfert

Contact : metmap@orbifly.com




SOURCES & CREDITS :

   NOAA